sensor_id;sensor_type;location;lat;lon;timestamp;P1;durP1;ratioP1;P2;durP2;ratioP2
26201;SDS011;13944;28.562;77.188;2023-05-07T00:01:31;39.28;;;18.63;;
26201;SDS011;13944;28.562;77.188;2023-05-07T00:03:57;41.47;;;19.10;;
26201;SDS011;13944;28.562;77.188;2023-05-07T00:06:24;46.20;;;19.95;;
26201;SDS011;13944;28.562;77.188;2023-05-07T00:08:51;46.80;;;19.05;;
26201;SDS011;13944;28.562;77.188;2023-05-07T00:11:18;41.78;;;18.90;;
26201;SDS011;13944;28.562;77.188;2023-05-07T00:13:45;35.47;;;18.52;;
26201;SDS011;13944;28.562;77.188;2023-05-07T00:16:11;40.10;;;18.48;;
26201;SDS011;13944;28.562;77.188;2023-05-07T00:18:38;40.28;;;19.35;;
26201;SDS011;13944;28.562;77.188;2023-05-07T00:21:04;40.65;;;19.30;;
26201;SDS011;13944;28.562;77.188;2023-05-07T00:23:31;36.65;;;18.98;;
26201;SDS011;13944;28.562;77.188;2023-05-07T00:25:57;43.25;;;19.60;;
26201;SDS011;13944;28.562;77.188;2023-05-07T00:28:24;53.63;;;19.70;;
26201;SDS011;13944;28.562;77.188;2023-05-07T00:30:50;43.15;;;18.48;;
26201;SDS011;13944;28.562;77.188;2023-05-07T00:33:17;37.60;;;17.38;;
26201;SDS011;13944;28.562;77.188;2023-05-07T00:35:45;49.75;;;19.33;;
26201;SDS011;13944;28.562;77.188;2023-05-07T00:38:12;48.78;;;19.85;;
26201;SDS011;13944;28.562;77.188;2023-05-07T00:40:38;51.25;;;18.45;;
26201;SDS011;13944;28.562;77.188;2023-05-07T00:43:05;48.38;;;18.73;;
26201;SDS011;13944;28.562;77.188;2023-05-07T00:45:32;48.05;;;18.92;;
26201;SDS011;13944;28.562;77.188;2023-05-07T00:47:59;50.97;;;18.58;;
26201;SDS011;13944;28.562;77.188;2023-05-07T00:50:26;58.53;;;19.60;;
26201;SDS011;13944;28.562;77.188;2023-05-07T00:52:53;43.72;;;18.95;;
26201;SDS011;13944;28.562;77.188;2023-05-07T00:55:21;53.53;;;19.10;;
26201;SDS011;13944;28.562;77.188;2023-05-07T00:57:47;50.53;;;19.80;;
26201;SDS011;13944;28.562;77.188;2023-05-07T01:00:15;48.72;;;19.95;;
26201;SDS011;13944;28.562;77.188;2023-05-07T01:02:42;43.65;;;19.85;;
26201;SDS011;13944;28.562;77.188;2023-05-07T01:05:09;47.03;;;19.85;;
26201;SDS011;13944;28.562;77.188;2023-05-07T01:07:37;49.90;;;19.48;;
26201;SDS011;13944;28.562;77.188;2023-05-07T01:10:05;40.35;;;18.58;;
26201;SDS011;13944;28.562;77.188;2023-05-07T01:12:32;42.05;;;19.40;;
26201;SDS011;13944;28.562;77.188;2023-05-07T01:14:59;40.70;;;19.83;;
26201;SDS011;13944;28.562;77.188;2023-05-07T01:17:26;46.33;;;20.45;;
26201;SDS011;13944;28.562;77.188;2023-05-07T01:19:52;49.00;;;19.70;;
26201;SDS011;13944;28.562;77.188;2023-05-07T01:22:30;56.13;;;21.58;;
26201;SDS011;13944;28.562;77.188;2023-05-07T01:24:57;42.33;;;20.00;;
26201;SDS011;13944;28.562;77.188;2023-05-07T01:27:25;47.15;;;21.15;;
26201;SDS011;13944;28.562;77.188;2023-05-07T01:29:51;42.85;;;20.42;;
26201;SDS011;13944;28.562;77.188;2023-05-07T01:32:40;45.80;;;21.83;;
26201;SDS011;13944;28.562;77.188;2023-05-07T01:35:05;53.85;;;24.40;;
26201;SDS011;13944;28.562;77.188;2023-05-07T01:37:33;50.78;;;22.33;;
26201;SDS011;13944;28.562;77.188;2023-05-07T01:40:03;52.38;;;20.83;;
26201;SDS011;13944;28.562;77.188;2023-05-07T01:42:30;48.72;;;20.40;;
26201;SDS011;13944;28.562;77.188;2023-05-07T01:45:00;52.95;;;19.88;;
26201;SDS011;13944;28.562;77.188;2023-05-07T01:47:26;58.65;;;20.85;;
26201;SDS011;13944;28.562;77.188;2023-05-07T01:49:53;41.00;;;18.20;;
26201;SDS011;13944;28.562;77.188;2023-05-07T01:52:20;39.85;;;17.98;;
26201;SDS011;13944;28.562;77.188;2023-05-07T01:54:47;36.90;;;18.42;;
26201;SDS011;13944;28.562;77.188;2023-05-07T01:57:13;41.03;;;18.35;;
26201;SDS011;13944;28.562;77.188;2023-05-07T01:59:40;42.20;;;17.13;;
26201;SDS011;13944;28.562;77.188;2023-05-07T02:02:07;42.78;;;17.83;;
26201;SDS011;13944;28.562;77.188;2023-05-07T02:04:33;42.70;;;16.63;;
26201;SDS011;13944;28.562;77.188;2023-05-07T02:07:00;36.65;;;16.98;;
26201;SDS011;13944;28.562;77.188;2023-05-07T02:09:26;40.33;;;16.92;;
26201;SDS011;13944;28.562;77.188;2023-05-07T02:11:53;34.72;;;16.27;;
26201;SDS011;13944;28.562;77.188;2023-05-07T02:14:19;39.13;;;16.33;;
26201;SDS011;13944;28.562;77.188;2023-05-07T02:16:46;34.50;;;15.77;;
26201;SDS011;13944;28.562;77.188;2023-05-07T02:19:12;37.38;;;15.90;;
26201;SDS011;13944;28.562;77.188;2023-05-07T02:21:39;31.40;;;15.50;;
26201;SDS011;13944;28.562;77.188;2023-05-07T02:24:06;39.35;;;15.57;;
26201;SDS011;13944;28.562;77.188;2023-05-07T02:26:32;35.55;;;15.63;;
26201;SDS011;13944;28.562;77.188;2023-05-07T02:28:59;34.00;;;15.95;;
26201;SDS011;13944;28.562;77.188;2023-05-07T02:31:26;38.60;;;17.08;;
26201;SDS011;13944;28.562;77.188;2023-05-07T02:33:52;35.30;;;17.40;;
26201;SDS011;13944;28.562;77.188;2023-05-07T02:36:19;39.80;;;18.42;;
26201;SDS011;13944;28.562;77.188;2023-05-07T02:38:45;39.72;;;18.50;;
26201;SDS011;13944;28.562;77.188;2023-05-07T02:41:12;38.20;;;18.00;;
26201;SDS011;13944;28.562;77.188;2023-05-07T02:43:38;34.17;;;17.00;;
26201;SDS011;13944;28.562;77.188;2023-05-07T02:46:06;35.78;;;17.55;;
26201;SDS011;13944;28.562;77.188;2023-05-07T02:48:33;36.35;;;19.42;;
26201;SDS011;13944;28.562;77.188;2023-05-07T02:51:00;38.97;;;19.75;;
26201;SDS011;13944;28.562;77.188;2023-05-07T02:53:27;38.30;;;19.65;;
26201;SDS011;13944;28.562;77.188;2023-05-07T02:55:58;41.42;;;21.08;;
26201;SDS011;13944;28.562;77.188;2023-05-07T02:58:25;41.63;;;21.05;;
26201;SDS011;13944;28.562;77.188;2023-05-07T03:00:54;45.78;;;22.90;;
26201;SDS011;13944;28.562;77.188;2023-05-07T03:03:20;44.42;;;22.75;;
26201;SDS011;13944;28.562;77.188;2023-05-07T03:05:47;45.35;;;23.25;;
26201;SDS011;13944;28.562;77.188;2023-05-07T03:08:14;64.72;;;25.02;;
26201;SDS011;13944;28.562;77.188;2023-05-07T03:10:40;72.25;;;24.77;;
26201;SDS011;13944;28.562;77.188;2023-05-07T03:13:07;55.30;;;25.05;;
26201;SDS011;13944;28.562;77.188;2023-05-07T03:15:33;62.83;;;26.38;;
26201;SDS011;13944;28.562;77.188;2023-05-07T03:18:00;56.42;;;24.02;;
26201;SDS011;13944;28.562;77.188;2023-05-07T03:20:26;58.17;;;23.15;;
26201;SDS011;13944;28.562;77.188;2023-05-07T03:22:53;43.78;;;20.45;;
26201;SDS011;13944;28.562;77.188;2023-05-07T03:25:20;108.22;;;25.55;;
26201;SDS011;13944;28.562;77.188;2023-05-07T03:27:46;95.13;;;23.55;;
26201;SDS011;13944;28.562;77.188;2023-05-07T03:30:13;78.53;;;23.52;;
26201;SDS011;13944;28.562;77.188;2023-05-07T03:32:39;56.72;;;20.20;;
26201;SDS011;13944;28.562;77.188;2023-05-07T03:35:06;62.92;;;20.02;;
26201;SDS011;13944;28.562;77.188;2023-05-07T03:37:36;51.88;;;20.00;;
26201;SDS011;13944;28.562;77.188;2023-05-07T03:40:02;48.45;;;19.98;;
26201;SDS011;13944;28.562;77.188;2023-05-07T03:42:29;47.65;;;18.80;;
26201;SDS011;13944;28.562;77.188;2023-05-07T03:44:56;47.08;;;18.45;;
26201;SDS011;13944;28.562;77.188;2023-05-07T03:47:22;76.07;;;21.15;;
26201;SDS011;13944;28.562;77.188;2023-05-07T03:49:49;63.22;;;19.45;;
26201;SDS011;13944;28.562;77.188;2023-05-07T03:52:18;50.97;;;18.25;;
26201;SDS011;13944;28.562;77.188;2023-05-07T03:54:49;51.63;;;19.40;;
26201;SDS011;13944;28.562;77.188;2023-05-07T03:57:15;62.47;;;19.45;;
26201;SDS011;13944;28.562;77.188;2023-05-07T03:59:42;79.63;;;21.15;;
26201;SDS011;13944;28.562;77.188;2023-05-07T04:02:08;57.72;;;19.02;;
26201;SDS011;13944;28.562;77.188;2023-05-07T04:04:35;54.33;;;20.00;;
26201;SDS011;13944;28.562;77.188;2023-05-07T04:07:01;45.97;;;18.55;;
26201;SDS011;13944;28.562;77.188;2023-05-07T04:09:28;42.95;;;17.60;;
26201;SDS011;13944;28.562;77.188;2023-05-07T04:11:55;44.42;;;18.00;;
26201;SDS011;13944;28.562;77.188;2023-05-07T04:14:21;42.05;;;18.17;;
26201;SDS011;13944;28.562;77.188;2023-05-07T04:16:48;42.90;;;17.13;;
26201;SDS011;13944;28.562;77.188;2023-05-07T04:19:14;43.03;;;18.02;;
26201;SDS011;13944;28.562;77.188;2023-05-07T04:21:41;43.03;;;17.90;;
26201;SDS011;13944;28.562;77.188;2023-05-07T04:24:07;35.55;;;17.55;;
26201;SDS011;13944;28.562;77.188;2023-05-07T04:26:34;34.58;;;16.73;;
26201;SDS011;13944;28.562;77.188;2023-05-07T04:29:01;36.75;;;16.20;;
26201;SDS011;13944;28.562;77.188;2023-05-07T04:31:27;30.38;;;16.30;;
26201;SDS011;13944;28.562;77.188;2023-05-07T04:33:55;62.53;;;20.38;;
26201;SDS011;13944;28.562;77.188;2023-05-07T04:36:22;43.78;;;17.83;;
26201;SDS011;13944;28.562;77.188;2023-05-07T04:38:53;38.00;;;17.73;;
26201;SDS011;13944;28.562;77.188;2023-05-07T04:41:19;45.35;;;18.58;;
26201;SDS011;13944;28.562;77.188;2023-05-07T04:43:46;41.10;;;18.55;;
26201;SDS011;13944;28.562;77.188;2023-05-07T04:46:13;34.88;;;18.42;;
26201;SDS011;13944;28.562;77.188;2023-05-07T04:48:39;44.33;;;17.75;;
26201;SDS011;13944;28.562;77.188;2023-05-07T04:51:06;49.15;;;19.15;;
26201;SDS011;13944;28.562;77.188;2023-05-07T04:53:32;37.35;;;16.42;;
26201;SDS011;13944;28.562;77.188;2023-05-07T04:55:59;36.20;;;17.33;;
26201;SDS011;13944;28.562;77.188;2023-05-07T04:58:25;39.03;;;16.73;;
26201;SDS011;13944;28.562;77.188;2023-05-07T05:00:52;33.50;;;18.05;;
26201;SDS011;13944;28.562;77.188;2023-05-07T05:03:19;35.88;;;17.92;;
26201;SDS011;13944;28.562;77.188;2023-05-07T05:05:45;34.85;;;18.30;;
26201;SDS011;13944;28.562;77.188;2023-05-07T05:08:12;38.70;;;18.92;;
26201;SDS011;13944;28.562;77.188;2023-05-07T05:10:38;42.65;;;18.55;;
26201;SDS011;13944;28.562;77.188;2023-05-07T05:13:06;35.65;;;17.98;;
26201;SDS011;13944;28.562;77.188;2023-05-07T05:15:33;34.92;;;17.90;;
26201;SDS011;13944;28.562;77.188;2023-05-07T05:17:59;34.70;;;16.27;;
26201;SDS011;13944;28.562;77.188;2023-05-07T05:20:26;34.35;;;16.13;;
26201;SDS011;13944;28.562;77.188;2023-05-07T05:22:53;31.52;;;16.00;;
26201;SDS011;13944;28.562;77.188;2023-05-07T05:25:19;29.15;;;16.10;;
26201;SDS011;13944;28.562;77.188;2023-05-07T05:27:46;30.70;;;16.08;;
26201;SDS011;13944;28.562;77.188;2023-05-07T05:30:12;34.45;;;16.33;;
26201;SDS011;13944;28.562;77.188;2023-05-07T05:32:39;34.80;;;16.50;;
26201;SDS011;13944;28.562;77.188;2023-05-07T05:35:05;40.70;;;16.27;;
26201;SDS011;13944;28.562;77.188;2023-05-07T05:37:32;35.88;;;16.65;;
26201;SDS011;13944;28.562;77.188;2023-05-07T05:39:59;34.63;;;16.25;;
26201;SDS011;13944;28.562;77.188;2023-05-07T05:42:25;33.10;;;15.18;;
26201;SDS011;13944;28.562;77.188;2023-05-07T05:44:52;35.20;;;16.27;;
26201;SDS011;13944;28.562;77.188;2023-05-07T05:47:18;34.58;;;17.08;;
26201;SDS011;13944;28.562;77.188;2023-05-07T05:49:45;32.63;;;16.45;;
26201;SDS011;13944;28.562;77.188;2023-05-07T05:52:11;35.33;;;16.80;;
26201;SDS011;13944;28.562;77.188;2023-05-07T05:54:39;33.78;;;17.45;;
26201;SDS011;13944;28.562;77.188;2023-05-07T05:57:06;37.33;;;17.35;;
26201;SDS011;13944;28.562;77.188;2023-05-07T05:59:32;34.40;;;17.45;;
26201;SDS011;13944;28.562;77.188;2023-05-07T06:01:59;29.65;;;17.45;;
26201;SDS011;13944;28.562;77.188;2023-05-07T06:04:25;36.25;;;18.52;;
26201;SDS011;13944;28.562;77.188;2023-05-07T06:06:52;38.70;;;18.35;;
26201;SDS011;13944;28.562;77.188;2023-05-07T06:09:18;36.25;;;17.35;;
26201;SDS011;13944;28.562;77.188;2023-05-07T06:11:45;34.50;;;17.13;;
26201;SDS011;13944;28.562;77.188;2023-05-07T06:14:12;30.88;;;17.05;;
26201;SDS011;13944;28.562;77.188;2023-05-07T06:16:38;36.72;;;17.02;;
26201;SDS011;13944;28.562;77.188;2023-05-07T06:19:05;42.08;;;17.92;;
26201;SDS011;13944;28.562;77.188;2023-05-07T06:21:32;37.80;;;20.90;;
26201;SDS011;13944;28.562;77.188;2023-05-07T06:23:58;52.60;;;26.27;;
26201;SDS011;13944;28.562;77.188;2023-05-07T06:26:25;94.63;;;45.13;;
26201;SDS011;13944;28.562;77.188;2023-05-07T06:28:51;114.57;;;59.15;;
26201;SDS011;13944;28.562;77.188;2023-05-07T06:31:18;155.40;;;73.15;;
26201;SDS011;13944;28.562;77.188;2023-05-07T06:33:49;157.25;;;76.82;;
26201;SDS011;13944;28.562;77.188;2023-05-07T06:36:15;131.65;;;66.45;;
26201;SDS011;13944;28.562;77.188;2023-05-07T06:38:42;142.27;;;72.95;;
26201;SDS011;13944;28.562;77.188;2023-05-07T06:41:09;137.27;;;74.15;;
26201;SDS011;13944;28.562;77.188;2023-05-07T06:43:35;133.82;;;73.50;;
26201;SDS011;13944;28.562;77.188;2023-05-07T06:46:02;133.85;;;71.13;;
26201;SDS011;13944;28.562;77.188;2023-05-07T06:48:28;123.13;;;70.10;;
26201;SDS011;13944;28.562;77.188;2023-05-07T06:50:55;116.20;;;69.50;;
26201;SDS011;13944;28.562;77.188;2023-05-07T06:53:23;113.82;;;67.28;;
26201;SDS011;13944;28.562;77.188;2023-05-07T06:55:51;110.82;;;64.85;;
26201;SDS011;13944;28.562;77.188;2023-05-07T06:58:17;110.50;;;64.05;;
26201;SDS011;13944;28.562;77.188;2023-05-07T07:00:44;107.82;;;63.42;;
26201;SDS011;13944;28.562;77.188;2023-05-07T07:03:11;102.95;;;60.30;;
26201;SDS011;13944;28.562;77.188;2023-05-07T07:05:37;106.50;;;63.78;;
26201;SDS011;13944;28.562;77.188;2023-05-07T07:08:04;100.50;;;62.63;;
26201;SDS011;13944;28.562;77.188;2023-05-07T07:10:31;96.55;;;59.55;;
26201;SDS011;13944;28.562;77.188;2023-05-07T07:12:57;96.38;;;59.95;;
26201;SDS011;13944;28.562;77.188;2023-05-07T07:15:24;96.75;;;54.88;;
26201;SDS011;13944;28.562;77.188;2023-05-07T07:17:51;90.80;;;52.53;;
26201;SDS011;13944;28.562;77.188;2023-05-07T07:20:18;81.40;;;52.03;;
26201;SDS011;13944;28.562;77.188;2023-05-07T07:22:44;84.30;;;49.92;;
26201;SDS011;13944;28.562;77.188;2023-05-07T07:25:11;89.22;;;50.85;;
26201;SDS011;13944;28.562;77.188;2023-05-07T07:27:37;94.28;;;50.72;;
26201;SDS011;13944;28.562;77.188;2023-05-07T07:30:05;76.85;;;47.28;;
26201;SDS011;13944;28.562;77.188;2023-05-07T07:32:33;78.07;;;46.75;;
26201;SDS011;13944;28.562;77.188;2023-05-07T07:35:00;73.35;;;46.20;;
26201;SDS011;13944;28.562;77.188;2023-05-07T07:37:27;72.30;;;46.42;;
26201;SDS011;13944;28.562;77.188;2023-05-07T07:39:54;84.72;;;48.97;;
26201;SDS011;13944;28.562;77.188;2023-05-07T07:42:21;80.18;;;47.58;;
26201;SDS011;13944;28.562;77.188;2023-05-07T07:44:48;76.85;;;47.90;;
26201;SDS011;13944;28.562;77.188;2023-05-07T07:47:14;78.10;;;48.13;;
26201;SDS011;13944;28.562;77.188;2023-05-07T07:49:41;68.93;;;47.25;;
26201;SDS011;13944;28.562;77.188;2023-05-07T07:52:07;76.82;;;46.38;;
26201;SDS011;13944;28.562;77.188;2023-05-07T07:54:34;66.47;;;46.03;;
26201;SDS011;13944;28.562;77.188;2023-05-07T07:57:01;76.00;;;45.78;;
26201;SDS011;13944;28.562;77.188;2023-05-07T07:59:28;76.18;;;44.95;;
26201;SDS011;13944;28.562;77.188;2023-05-07T08:01:55;72.38;;;43.35;;
26201;SDS011;13944;28.562;77.188;2023-05-07T08:04:22;66.60;;;42.70;;
26201;SDS011;13944;28.562;77.188;2023-05-07T08:06:49;68.00;;;42.60;;
26201;SDS011;13944;28.562;77.188;2023-05-07T08:09:15;63.17;;;41.17;;
26201;SDS011;13944;28.562;77.188;2023-05-07T08:11:42;78.78;;;43.50;;
26201;SDS011;13944;28.562;77.188;2023-05-07T08:14:08;69.63;;;41.78;;
26201;SDS011;13944;28.562;77.188;2023-05-07T08:16:35;63.83;;;41.85;;
26201;SDS011;13944;28.562;77.188;2023-05-07T08:19:02;68.18;;;42.63;;
26201;SDS011;13944;28.562;77.188;2023-05-07T08:21:28;66.15;;;40.50;;
26201;SDS011;13944;28.562;77.188;2023-05-07T08:23:56;62.83;;;39.47;;
26201;SDS011;13944;28.562;77.188;2023-05-07T08:26:22;68.88;;;40.67;;
26201;SDS011;13944;28.562;77.188;2023-05-07T08:28:49;59.72;;;39.13;;
26201;SDS011;13944;28.562;77.188;2023-05-07T08:31:15;62.78;;;40.03;;
26201;SDS011;13944;28.562;77.188;2023-05-07T08:33:42;66.60;;;39.90;;
26201;SDS011;13944;28.562;77.188;2023-05-07T08:36:08;58.47;;;39.95;;
26201;SDS011;13944;28.562;77.188;2023-05-07T08:38:35;63.00;;;41.13;;
26201;SDS011;13944;28.562;77.188;2023-05-07T08:41:02;65.32;;;40.95;;
26201;SDS011;13944;28.562;77.188;2023-05-07T08:43:28;66.13;;;38.88;;
26201;SDS011;13944;28.562;77.188;2023-05-07T08:45:57;55.08;;;39.10;;
26201;SDS011;13944;28.562;77.188;2023-05-07T08:48:27;56.88;;;37.40;;
26201;SDS011;13944;28.562;77.188;2023-05-07T08:50:55;56.70;;;37.15;;
26201;SDS011;13944;28.562;77.188;2023-05-07T08:53:22;56.88;;;36.60;;
26201;SDS011;13944;28.562;77.188;2023-05-07T08:55:49;49.85;;;35.28;;
26201;SDS011;13944;28.562;77.188;2023-05-07T08:58:15;59.42;;;34.80;;
26201;SDS011;13944;28.562;77.188;2023-05-07T09:00:42;47.05;;;32.72;;
26201;SDS011;13944;28.562;77.188;2023-05-07T09:03:08;53.47;;;32.88;;
26201;SDS011;13944;28.562;77.188;2023-05-07T09:05:38;46.75;;;30.63;;
26201;SDS011;13944;28.562;77.188;2023-05-07T09:08:06;56.42;;;31.02;;
26201;SDS011;13944;28.562;77.188;2023-05-07T09:10:33;52.80;;;30.73;;
26201;SDS011;13944;28.562;77.188;2023-05-07T09:12:59;45.20;;;30.90;;
26201;SDS011;13944;28.562;77.188;2023-05-07T09:15:26;55.10;;;29.70;;
26201;SDS011;13944;28.562;77.188;2023-05-07T09:17:57;52.08;;;29.30;;
26201;SDS011;13944;28.562;77.188;2023-05-07T09:20:26;52.00;;;28.00;;
26201;SDS011;13944;28.562;77.188;2023-05-07T09:22:54;47.20;;;26.92;;
26201;SDS011;13944;28.562;77.188;2023-05-07T09:25:28;45.08;;;27.75;;
26201;SDS011;13944;28.562;77.188;2023-05-07T09:27:55;51.33;;;27.20;;
26201;SDS011;13944;28.562;77.188;2023-05-07T09:30:21;45.13;;;24.23;;
26201;SDS011;13944;28.562;77.188;2023-05-07T09:32:48;44.40;;;24.63;;
26201;SDS011;13944;28.562;77.188;2023-05-07T09:35:15;42.80;;;24.65;;
26201;SDS011;13944;28.562;77.188;2023-05-07T09:37:42;42.35;;;24.75;;
26201;SDS011;13944;28.562;77.188;2023-05-07T09:40:19;39.90;;;23.80;;
26201;SDS011;13944;28.562;77.188;2023-05-07T09:42:47;41.67;;;22.92;;
26201;SDS011;13944;28.562;77.188;2023-05-07T09:45:15;45.97;;;24.52;;
26201;SDS011;13944;28.562;77.188;2023-05-07T09:47:42;42.55;;;24.00;;
26201;SDS011;13944;28.562;77.188;2023-05-07T09:50:13;38.92;;;24.60;;
26201;SDS011;13944;28.562;77.188;2023-05-07T09:52:41;43.90;;;24.10;;
26201;SDS011;13944;28.562;77.188;2023-05-07T09:55:08;39.58;;;23.48;;
26201;SDS011;13944;28.562;77.188;2023-05-07T09:57:35;43.53;;;23.88;;
26201;SDS011;13944;28.562;77.188;2023-05-07T10:00:05;37.63;;;23.00;;
26201;SDS011;13944;28.562;77.188;2023-05-07T10:02:34;35.15;;;21.90;;
26201;SDS011;13944;28.562;77.188;2023-05-07T10:05:02;33.47;;;18.60;;
26201;SDS011;13944;28.562;77.188;2023-05-07T10:07:28;45.17;;;18.70;;
26201;SDS011;13944;28.562;77.188;2023-05-07T10:09:56;34.03;;;18.00;;
26201;SDS011;13944;28.562;77.188;2023-05-07T10:12:23;32.05;;;18.08;;
26201;SDS011;13944;28.562;77.188;2023-05-07T10:14:50;38.63;;;18.80;;
26201;SDS011;13944;28.562;77.188;2023-05-07T10:17:19;35.08;;;18.05;;
26201;SDS011;13944;28.562;77.188;2023-05-07T10:19:46;37.97;;;18.00;;
26201;SDS011;13944;28.562;77.188;2023-05-07T10:22:13;41.72;;;18.45;;
26201;SDS011;13944;28.562;77.188;2023-05-07T10:24:40;35.55;;;18.08;;
26201;SDS011;13944;28.562;77.188;2023-05-07T10:27:08;39.75;;;18.80;;
26201;SDS011;13944;28.562;77.188;2023-05-07T10:29:45;38.47;;;19.40;;
26201;SDS011;13944;28.562;77.188;2023-05-07T10:35:01;39.95;;;19.15;;
26201;SDS011;13944;28.562;77.188;2023-05-07T10:37:28;75.07;;;21.50;;
26201;SDS011;13944;28.562;77.188;2023-05-07T10:39:55;43.42;;;18.73;;
26201;SDS011;13944;28.562;77.188;2023-05-07T10:42:22;35.38;;;18.17;;
26201;SDS011;13944;28.562;77.188;2023-05-07T10:44:49;36.42;;;18.85;;
26201;SDS011;13944;28.562;77.188;2023-05-07T10:47:16;42.38;;;17.65;;
26201;SDS011;13944;28.562;77.188;2023-05-07T10:52:11;34.05;;;18.52;;
26201;SDS011;13944;28.562;77.188;2023-05-07T10:54:41;39.92;;;18.13;;
26201;SDS011;13944;28.562;77.188;2023-05-07T10:59:54;48.33;;;19.58;;
26201;SDS011;13944;28.562;77.188;2023-05-07T11:02:20;41.90;;;18.05;;
26201;SDS011;13944;28.562;77.188;2023-05-07T11:07:32;36.17;;;17.70;;
26201;SDS011;13944;28.562;77.188;2023-05-07T11:09:59;39.55;;;18.77;;
26201;SDS011;13944;28.562;77.188;2023-05-07T11:15:09;38.42;;;18.70;;
26201;SDS011;13944;28.562;77.188;2023-05-07T11:20:20;45.45;;;18.88;;
26201;SDS011;13944;28.562;77.188;2023-05-07T11:22:48;41.65;;;18.48;;
26201;SDS011;13944;28.562;77.188;2023-05-07T11:25:18;41.28;;;19.30;;
26201;SDS011;13944;28.562;77.188;2023-05-07T11:27:45;40.70;;;19.45;;
26201;SDS011;13944;28.562;77.188;2023-05-07T11:30:20;36.15;;;18.38;;
26201;SDS011;13944;28.562;77.188;2023-05-07T11:32:48;41.67;;;18.20;;
26201;SDS011;13944;28.562;77.188;2023-05-07T11:35:14;37.08;;;18.63;;
26201;SDS011;13944;28.562;77.188;2023-05-07T11:37:42;37.92;;;17.73;;
26201;SDS011;13944;28.562;77.188;2023-05-07T11:40:09;34.97;;;16.88;;
26201;SDS011;13944;28.562;77.188;2023-05-07T11:42:37;40.50;;;17.30;;
26201;SDS011;13944;28.562;77.188;2023-05-07T11:45:04;43.95;;;17.17;;
26201;SDS011;13944;28.562;77.188;2023-05-07T11:47:34;34.85;;;16.45;;
26201;SDS011;13944;28.562;77.188;2023-05-07T11:50:05;32.25;;;17.67;;
26201;SDS011;13944;28.562;77.188;2023-05-07T11:52:32;34.22;;;17.95;;
26201;SDS011;13944;28.562;77.188;2023-05-07T11:55:00;35.13;;;17.58;;
26201;SDS011;13944;28.562;77.188;2023-05-07T11:57:27;34.88;;;18.00;;
26201;SDS011;13944;28.562;77.188;2023-05-07T11:59:57;39.60;;;17.48;;
26201;SDS011;13944;28.562;77.188;2023-05-07T12:02:24;74.78;;;20.13;;
26201;SDS011;13944;28.562;77.188;2023-05-07T12:04:54;84.07;;;20.77;;
26201;SDS011;13944;28.562;77.188;2023-05-07T12:07:21;110.88;;;23.30;;
26201;SDS011;13944;28.562;77.188;2023-05-07T12:09:47;71.18;;;21.67;;
26201;SDS011;13944;28.562;77.188;2023-05-07T12:12:14;51.53;;;20.33;;
26201;SDS011;13944;28.562;77.188;2023-05-07T12:14:43;58.05;;;24.23;;
26201;SDS011;13944;28.562;77.188;2023-05-07T12:17:10;46.17;;;20.73;;
26201;SDS011;13944;28.562;77.188;2023-05-07T12:19:38;45.30;;;20.45;;
26201;SDS011;13944;28.562;77.188;2023-05-07T12:22:07;80.80;;;22.65;;
26201;SDS011;13944;28.562;77.188;2023-05-07T12:24:50;61.35;;;22.98;;
26201;SDS011;13944;28.562;77.188;2023-05-07T12:27:22;54.83;;;24.48;;
26201;SDS011;13944;28.562;77.188;2023-05-07T12:29:49;47.10;;;23.42;;
26201;SDS011;13944;28.562;77.188;2023-05-07T12:32:16;43.53;;;22.83;;
26201;SDS011;13944;28.562;77.188;2023-05-07T12:34:46;41.50;;;23.67;;
26201;SDS011;13944;28.562;77.188;2023-05-07T12:37:13;50.28;;;23.30;;
26201;SDS011;13944;28.562;77.188;2023-05-07T12:39:50;39.92;;;23.67;;
26201;SDS011;13944;28.562;77.188;2023-05-07T12:42:40;40.40;;;25.55;;
26201;SDS011;13944;28.562;77.188;2023-05-07T12:45:16;42.08;;;26.23;;
26201;SDS011;13944;28.562;77.188;2023-05-07T12:47:43;43.83;;;25.85;;
26201;SDS011;13944;28.562;77.188;2023-05-07T12:50:10;51.55;;;28.77;;
26201;SDS011;13944;28.562;77.188;2023-05-07T12:52:37;51.95;;;29.58;;
26201;SDS011;13944;28.562;77.188;2023-05-07T12:55:04;49.97;;;29.67;;
26201;SDS011;13944;28.562;77.188;2023-05-07T12:57:37;49.83;;;30.95;;
26201;SDS011;13944;28.562;77.188;2023-05-07T13:00:05;51.22;;;31.25;;
26201;SDS011;13944;28.562;77.188;2023-05-07T13:02:32;53.78;;;32.63;;
26201;SDS011;13944;28.562;77.188;2023-05-07T13:04:59;46.45;;;30.80;;
26201;SDS011;13944;28.562;77.188;2023-05-07T13:07:26;42.47;;;30.45;;
26201;SDS011;13944;28.562;77.188;2023-05-07T13:09:53;42.42;;;28.58;;
26201;SDS011;13944;28.562;77.188;2023-05-07T13:12:19;43.58;;;28.70;;
26201;SDS011;13944;28.562;77.188;2023-05-07T13:14:46;48.95;;;30.02;;
26201;SDS011;13944;28.562;77.188;2023-05-07T13:17:12;53.08;;;30.33;;
26201;SDS011;13944;28.562;77.188;2023-05-07T13:19:39;45.55;;;31.58;;
26201;SDS011;13944;28.562;77.188;2023-05-07T13:22:05;49.88;;;33.58;;
26201;SDS011;13944;28.562;77.188;2023-05-07T13:24:32;47.25;;;32.90;;
26201;SDS011;13944;28.562;77.188;2023-05-07T13:26:59;46.75;;;34.28;;
26201;SDS011;13944;28.562;77.188;2023-05-07T13:29:25;45.67;;;32.28;;
26201;SDS011;13944;28.562;77.188;2023-05-07T13:31:58;51.05;;;33.90;;
26201;SDS011;13944;28.562;77.188;2023-05-07T13:34:25;53.05;;;32.78;;
26201;SDS011;13944;28.562;77.188;2023-05-07T13:36:52;51.67;;;31.58;;
26201;SDS011;13944;28.562;77.188;2023-05-07T13:39:18;45.22;;;30.13;;
26201;SDS011;13944;28.562;77.188;2023-05-07T13:41:45;47.20;;;31.02;;
26201;SDS011;13944;28.562;77.188;2023-05-07T13:44:11;52.83;;;32.45;;
26201;SDS011;13944;28.562;77.188;2023-05-07T13:46:38;54.03;;;35.72;;
26201;SDS011;13944;28.562;77.188;2023-05-07T13:49:05;54.22;;;36.85;;
26201;SDS011;13944;28.562;77.188;2023-05-07T13:51:31;64.50;;;37.03;;
26201;SDS011;13944;28.562;77.188;2023-05-07T13:53:58;65.85;;;38.75;;
26201;SDS011;13944;28.562;77.188;2023-05-07T13:56:24;66.47;;;40.30;;
26201;SDS011;13944;28.562;77.188;2023-05-07T13:58:53;88.18;;;45.85;;
26201;SDS011;13944;28.562;77.188;2023-05-07T14:01:20;72.85;;;44.63;;
26201;SDS011;13944;28.562;77.188;2023-05-07T14:03:46;68.78;;;43.00;;
26201;SDS011;13944;28.562;77.188;2023-05-07T14:06:13;74.40;;;42.75;;
26201;SDS011;13944;28.562;77.188;2023-05-07T14:08:40;63.28;;;39.60;;
26201;SDS011;13944;28.562;77.188;2023-05-07T14:11:07;64.97;;;37.60;;
26201;SDS011;13944;28.562;77.188;2023-05-07T14:13:33;56.13;;;34.85;;
26201;SDS011;13944;28.562;77.188;2023-05-07T14:16:00;59.75;;;36.83;;
26201;SDS011;13944;28.562;77.188;2023-05-07T14:18:27;58.92;;;36.25;;
26201;SDS011;13944;28.562;77.188;2023-05-07T14:20:54;61.03;;;37.22;;
26201;SDS011;13944;28.562;77.188;2023-05-07T14:23:21;54.20;;;35.38;;
26201;SDS011;13944;28.562;77.188;2023-05-07T14:25:54;60.72;;;36.63;;